sensor_id;sensor_type;location;lat;lon;timestamp;pressure;altitude;pressure_sealevel;temperature;humidity
74895;BME280;63447;49.446;8.666;2023-04-15T00:02:17;99514.31;;;7.42;66.85
74895;BME280;63447;49.446;8.666;2023-04-15T00:04:44;99507.81;;;7.46;66.96
74895;BME280;63447;49.446;8.666;2023-04-15T00:07:09;99507.31;;;7.53;66.65
74895;BME280;63447;49.446;8.666;2023-04-15T00:09:35;99482.50;;;7.41;66.04
74895;BME280;63447;49.446;8.666;2023-04-15T00:12:00;99495.38;;;7.49;66.19
74895;BME280;63447;49.446;8.666;2023-04-15T00:14:26;99509.34;;;7.56;67.13
74895;BME280;63447;49.446;8.666;2023-04-15T00:16:52;99493.09;;;7.51;66.51
74895;BME280;63447;49.446;8.666;2023-04-15T00:19:20;99493.78;;;7.48;67.41
74895;BME280;63447;49.446;8.666;2023-04-15T00:21:48;99492.50;;;7.45;66.82
74895;BME280;63447;49.446;8.666;2023-04-15T00:24:13;99497.50;;;7.43;66.15
74895;BME280;63447;49.446;8.666;2023-04-15T00:26:38;99483.09;;;7.26;67.07
74895;BME280;63447;49.446;8.666;2023-04-15T00:29:04;99482.16;;;7.22;67.45
74895;BME280;63447;49.446;8.666;2023-04-15T00:31:31;99490.19;;;7.27;67.34
74895;BME280;63447;49.446;8.666;2023-04-15T00:33:57;99485.06;;;7.17;67.52
74895;BME280;63447;49.446;8.666;2023-04-15T00:36:25;99482.91;;;7.01;67.98
74895;BME280;63447;49.446;8.666;2023-04-15T00:38:50;99490.19;;;6.97;68.60
74895;BME280;63447;49.446;8.666;2023-04-15T00:41:18;99473.25;;;6.95;67.91
74895;BME280;63447;49.446;8.666;2023-04-15T00:43:43;99444.97;;;6.74;68.10
74895;BME280;63447;49.446;8.666;2023-04-15T00:46:11;99498.34;;;7.06;68.02
74895;BME280;63447;49.446;8.666;2023-04-15T00:48:38;99496.25;;;7.03;67.80
74895;BME280;63447;49.446;8.666;2023-04-15T00:51:04;99479.22;;;6.97;68.88
74895;BME280;63447;49.446;8.666;2023-04-15T00:53:31;99477.13;;;6.94;68.71
74895;BME280;63447;49.446;8.666;2023-04-15T00:55:58;99468.63;;;6.78;69.32
74895;BME280;63447;49.446;8.666;2023-04-15T00:58:25;99474.59;;;6.80;68.76
74895;BME280;63447;49.446;8.666;2023-04-15T01:00:52;99489.88;;;6.90;68.76
74895;BME280;63447;49.446;8.666;2023-04-15T01:03:18;99471.50;;;6.82;69.44
74895;BME280;63447;49.446;8.666;2023-04-15T01:05:44;99479.25;;;6.80;69.54
74895;BME280;63447;49.446;8.666;2023-04-15T01:08:11;99461.59;;;6.69;69.33
74895;BME280;63447;49.446;8.666;2023-04-15T01:10:37;99458.56;;;6.53;67.67
74895;BME280;63447;49.446;8.666;2023-04-15T01:13:02;99469.72;;;6.48;69.59
74895;BME280;63447;49.446;8.666;2023-04-15T01:15:28;99482.47;;;6.27;68.56
74895;BME280;63447;49.446;8.666;2023-04-15T01:17:53;99499.09;;;6.04;72.40
74895;BME280;63447;49.446;8.666;2023-04-15T01:20:19;99481.84;;;5.87;71.82
74895;BME280;63447;49.446;8.666;2023-04-15T01:22:44;99504.41;;;6.01;72.78
74895;BME280;63447;49.446;8.666;2023-04-15T01:25:17;99501.19;;;5.99;72.05
74895;BME280;63447;49.446;8.666;2023-04-15T01:27:43;99483.97;;;5.98;72.18
74895;BME280;63447;49.446;8.666;2023-04-15T01:30:08;99471.88;;;5.99;71.88
74895;BME280;63447;49.446;8.666;2023-04-15T01:32:34;99490.88;;;6.13;71.08
74895;BME280;63447;49.446;8.666;2023-04-15T01:35:05;99495.06;;;6.19;71.12
74895;BME280;63447;49.446;8.666;2023-04-15T01:37:31;99499.44;;;6.20;71.14
74895;BME280;63447;49.446;8.666;2023-04-15T01:39:58;99496.19;;;6.18;71.57
74895;BME280;63447;49.446;8.666;2023-04-15T01:42:24;99498.28;;;6.21;71.40
74895;BME280;63447;49.446;8.666;2023-04-15T01:44:51;99480.41;;;6.15;71.16
74895;BME280;63447;49.446;8.666;2023-04-15T01:47:19;99493.94;;;6.20;71.15
74895;BME280;63447;49.446;8.666;2023-04-15T01:49:44;99495.88;;;6.20;71.34
74895;BME280;63447;49.446;8.666;2023-04-15T01:52:10;99466.06;;;6.01;72.15
74895;BME280;63447;49.446;8.666;2023-04-15T01:54:35;99493.75;;;6.25;72.73
74895;BME280;63447;49.446;8.666;2023-04-15T01:57:02;99494.88;;;6.24;70.82
74895;BME280;63447;49.446;8.666;2023-04-15T01:59:30;99475.25;;;6.13;71.84
74895;BME280;63447;49.446;8.666;2023-04-15T02:01:56;99486.84;;;6.19;72.14
74895;BME280;63447;49.446;8.666;2023-04-15T02:04:21;99488.28;;;6.25;72.54
74895;BME280;63447;49.446;8.666;2023-04-15T02:06:47;99490.03;;;6.30;72.11
74895;BME280;63447;49.446;8.666;2023-04-15T02:09:15;99488.59;;;6.24;72.25
74895;BME280;63447;49.446;8.666;2023-04-15T02:11:41;99335.38;;;5.20;72.39
74895;BME280;63447;49.446;8.666;2023-04-15T02:14:08;99481.06;;;6.03;72.02
74895;BME280;63447;49.446;8.666;2023-04-15T02:16:36;99495.56;;;6.12;70.73
74895;BME280;63447;49.446;8.666;2023-04-15T02:19:02;99473.50;;;5.92;71.88
74895;BME280;63447;49.446;8.666;2023-04-15T02:21:32;99499.13;;;5.96;71.47
74895;BME280;63447;49.446;8.666;2023-04-15T02:24:04;99475.06;;;5.75;71.46
74895;BME280;63447;49.446;8.666;2023-04-15T02:26:31;99476.22;;;5.66;72.88
74895;BME280;63447;49.446;8.666;2023-04-15T02:28:58;99496.03;;;5.71;73.16
74895;BME280;63447;49.446;8.666;2023-04-15T02:31:23;99497.13;;;5.62;73.26
74895;BME280;63447;49.446;8.666;2023-04-15T02:33:49;99496.78;;;5.55;73.82
74895;BME280;63447;49.446;8.666;2023-04-15T02:36:15;99466.53;;;5.34;74.27
74895;BME280;63447;49.446;8.666;2023-04-15T02:38:40;99489.72;;;5.54;73.70
74895;BME280;63447;49.446;8.666;2023-04-15T02:41:10;99490.34;;;5.42;73.99
74895;BME280;63447;49.446;8.666;2023-04-15T02:43:38;99485.84;;;5.46;74.21
74895;BME280;63447;49.446;8.666;2023-04-15T02:46:04;99503.22;;;5.50;73.71
74895;BME280;63447;49.446;8.666;2023-04-15T02:48:30;99479.22;;;5.47;73.58
74895;BME280;63447;49.446;8.666;2023-04-15T02:51:19;99491.16;;;5.51;73.38
74895;BME280;63447;49.446;8.666;2023-04-15T02:53:48;99492.78;;;5.52;74.07
74895;BME280;63447;49.446;8.666;2023-04-15T02:56:14;99488.91;;;5.53;74.09
74895;BME280;63447;49.446;8.666;2023-04-15T02:58:42;99471.66;;;5.35;73.89
74895;BME280;63447;49.446;8.666;2023-04-15T03:01:09;99492.59;;;5.49;74.13
74895;BME280;63447;49.446;8.666;2023-04-15T03:03:35;99492.28;;;5.50;73.57
74895;BME280;63447;49.446;8.666;2023-04-15T03:06:00;99503.53;;;5.49;74.39
74895;BME280;63447;49.446;8.666;2023-04-15T03:08:26;99497.94;;;5.45;73.91
74895;BME280;63447;49.446;8.666;2023-04-15T03:10:51;99475.34;;;5.31;74.21
74895;BME280;63447;49.446;8.666;2023-04-15T03:13:18;99497.44;;;5.52;74.50
74895;BME280;63447;49.446;8.666;2023-04-15T03:15:45;99480.53;;;5.41;74.04
74895;BME280;63447;49.446;8.666;2023-04-15T03:18:11;99504.84;;;5.51;73.93
74895;BME280;63447;49.446;8.666;2023-04-15T03:20:36;99466.84;;;5.32;73.91
74895;BME280;63447;49.446;8.666;2023-04-15T03:23:02;99499.50;;;5.46;73.30
74895;BME280;63447;49.446;8.666;2023-04-15T03:25:29;99493.38;;;5.32;73.71
74895;BME280;63447;49.446;8.666;2023-04-15T03:27:55;99489.19;;;5.26;74.31
74895;BME280;63447;49.446;8.666;2023-04-15T03:30:21;99478.25;;;5.17;74.58
74895;BME280;63447;49.446;8.666;2023-04-15T03:32:46;99496.91;;;5.24;73.80
74895;BME280;63447;49.446;8.666;2023-04-15T03:35:11;99468.22;;;5.04;74.05
74895;BME280;63447;49.446;8.666;2023-04-15T03:37:39;99487.88;;;5.15;74.43
74895;BME280;63447;49.446;8.666;2023-04-15T03:40:05;99487.56;;;5.16;74.58
74895;BME280;63447;49.446;8.666;2023-04-15T03:42:31;99481.59;;;5.14;74.11
74895;BME280;63447;49.446;8.666;2023-04-15T03:44:56;99490.78;;;5.18;74.28
74895;BME280;63447;49.446;8.666;2023-04-15T03:47:22;99499.31;;;5.17;73.98
74895;BME280;63447;49.446;8.666;2023-04-15T03:49:47;99488.34;;;5.08;74.43
74895;BME280;63447;49.446;8.666;2023-04-15T03:52:15;99480.13;;;5.08;73.83
74895;BME280;63447;49.446;8.666;2023-04-15T03:54:40;99479.47;;;5.02;73.90
74895;BME280;63447;49.446;8.666;2023-04-15T03:57:05;99482.25;;;5.11;75.00
74895;BME280;63447;49.446;8.666;2023-04-15T03:59:31;99497.69;;;5.16;73.39
74895;BME280;63447;49.446;8.666;2023-04-15T04:01:56;99495.91;;;5.11;73.53
74895;BME280;63447;49.446;8.666;2023-04-15T04:04:21;99498.09;;;5.00;74.15
74895;BME280;63447;49.446;8.666;2023-04-15T04:06:48;99497.78;;;4.93;74.24
74895;BME280;63447;49.446;8.666;2023-04-15T04:09:13;99493.41;;;4.84;74.53
74895;BME280;63447;49.446;8.666;2023-04-15T04:11:43;99475.16;;;4.62;75.15
74895;BME280;63447;49.446;8.666;2023-04-15T04:14:09;99472.91;;;4.64;75.04
74895;BME280;63447;49.446;8.666;2023-04-15T04:16:37;99491.41;;;4.75;74.46
74895;BME280;63447;49.446;8.666;2023-04-15T04:19:05;99497.06;;;4.79;75.00
74895;BME280;63447;49.446;8.666;2023-04-15T04:21:33;99477.56;;;4.63;75.82
74895;BME280;63447;49.446;8.666;2023-04-15T04:23:58;99484.97;;;4.71;74.80
74895;BME280;63447;49.446;8.666;2023-04-15T04:26:26;99491.25;;;4.72;75.55
74895;BME280;63447;49.446;8.666;2023-04-15T04:28:52;99464.22;;;4.62;75.30
74895;BME280;63447;49.446;8.666;2023-04-15T04:31:19;99482.56;;;4.70;75.67
74895;BME280;63447;49.446;8.666;2023-04-15T04:33:47;99463.91;;;4.63;75.97
74895;BME280;63447;49.446;8.666;2023-04-15T04:36:12;99500.97;;;4.87;75.18
74895;BME280;63447;49.446;8.666;2023-04-15T04:38:38;99492.59;;;4.83;75.65
74895;BME280;63447;49.446;8.666;2023-04-15T04:41:03;99500.78;;;4.83;76.41
74895;BME280;63447;49.446;8.666;2023-04-15T04:43:28;99510.41;;;4.81;75.20
74895;BME280;63447;49.446;8.666;2023-04-15T04:45:56;99455.09;;;4.35;75.71
74895;BME280;63447;49.446;8.666;2023-04-15T04:48:22;99502.91;;;4.55;77.10
74895;BME280;63447;49.446;8.666;2023-04-15T04:50:47;99504.94;;;4.50;75.61
74895;BME280;63447;49.446;8.666;2023-04-15T04:53:12;99514.00;;;4.59;77.14
74895;BME280;63447;49.446;8.666;2023-04-15T04:55:38;99518.38;;;4.68;76.62
74895;BME280;63447;49.446;8.666;2023-04-15T04:58:04;99502.47;;;4.70;76.38
74895;BME280;63447;49.446;8.666;2023-04-15T05:00:29;99527.81;;;4.85;75.80
74895;BME280;63447;49.446;8.666;2023-04-15T05:02:57;99514.28;;;4.80;75.48
74895;BME280;63447;49.446;8.666;2023-04-15T05:05:23;99524.94;;;4.90;75.94
74895;BME280;63447;49.446;8.666;2023-04-15T05:07:48;99518.03;;;4.92;76.06
74895;BME280;63447;49.446;8.666;2023-04-15T05:10:16;99519.16;;;4.91;75.83
74895;BME280;63447;49.446;8.666;2023-04-15T05:12:42;99539.66;;;5.11;75.59
74895;BME280;63447;49.446;8.666;2023-04-15T05:15:07;99527.91;;;5.10;75.60
74895;BME280;63447;49.446;8.666;2023-04-15T05:17:33;99536.13;;;5.10;75.04
74895;BME280;63447;49.446;8.666;2023-04-15T05:19:59;99494.47;;;4.74;75.58
74895;BME280;63447;49.446;8.666;2023-04-15T05:22:25;99542.53;;;5.06;75.62
74895;BME280;63447;49.446;8.666;2023-04-15T05:24:52;99510.59;;;4.84;75.46
74895;BME280;63447;49.446;8.666;2023-04-15T05:27:18;99511.75;;;4.92;76.31
74895;BME280;63447;49.446;8.666;2023-04-15T05:29:43;99542.38;;;5.11;75.68
74895;BME280;63447;49.446;8.666;2023-04-15T05:32:08;99543.69;;;5.14;75.89
74895;BME280;63447;49.446;8.666;2023-04-15T05:34:34;99541.44;;;5.16;76.19
74895;BME280;63447;49.446;8.666;2023-04-15T05:36:59;99525.53;;;5.18;75.77
74895;BME280;63447;49.446;8.666;2023-04-15T05:39:25;99541.84;;;5.40;75.08
74895;BME280;63447;49.446;8.666;2023-04-15T05:41:50;99539.78;;;5.45;74.73
74895;BME280;63447;49.446;8.666;2023-04-15T05:44:16;99543.78;;;5.48;74.48
74895;BME280;63447;49.446;8.666;2023-04-15T05:46:41;99541.22;;;5.43;74.58
74895;BME280;63447;49.446;8.666;2023-04-15T05:49:07;99547.31;;;5.40;75.10
74895;BME280;63447;49.446;8.666;2023-04-15T05:51:32;99551.50;;;5.46;74.82
74895;BME280;63447;49.446;8.666;2023-04-15T05:53:57;99553.59;;;5.49;74.82
74895;BME280;63447;49.446;8.666;2023-04-15T05:56:23;99561.66;;;5.54;75.59
74895;BME280;63447;49.446;8.666;2023-04-15T05:58:52;99548.47;;;5.56;74.76
74895;BME280;63447;49.446;8.666;2023-04-15T06:01:17;99558.16;;;5.62;74.63
74895;BME280;63447;49.446;8.666;2023-04-15T06:03:43;99543.19;;;5.68;74.42
74895;BME280;63447;49.446;8.666;2023-04-15T06:06:09;99508.19;;;5.31;75.46
74895;BME280;63447;49.446;8.666;2023-04-15T06:08:34;99571.38;;;5.69;76.05
74895;BME280;63447;49.446;8.666;2023-04-15T06:11:02;99537.53;;;5.73;75.98
74895;BME280;63447;49.446;8.666;2023-04-15T06:13:27;99503.56;;;5.57;73.58
74895;BME280;63447;49.446;8.666;2023-04-15T06:15:53;99556.78;;;5.91;75.56
74895;BME280;63447;49.446;8.666;2023-04-15T06:18:18;99546.09;;;5.80;76.17
74895;BME280;63447;49.446;8.666;2023-04-15T06:20:46;99573.19;;;6.08;75.27
74895;BME280;63447;49.446;8.666;2023-04-15T06:23:11;99549.47;;;5.77;74.52
74895;BME280;63447;49.446;8.666;2023-04-15T06:25:37;99575.47;;;5.97;74.85
74895;BME280;63447;49.446;8.666;2023-04-15T06:28:02;99565.31;;;5.89;74.90
74895;BME280;63447;49.446;8.666;2023-04-15T06:30:30;99568.38;;;6.05;74.86
74895;BME280;63447;49.446;8.666;2023-04-15T06:32:58;99569.19;;;6.14;75.48
74895;BME280;63447;49.446;8.666;2023-04-15T06:35:23;99572.06;;;6.26;74.51
74895;BME280;63447;49.446;8.666;2023-04-15T06:37:48;99547.13;;;6.19;74.59
74895;BME280;63447;49.446;8.666;2023-04-15T06:40:16;99571.25;;;6.52;73.75
74895;BME280;63447;49.446;8.666;2023-04-15T06:42:44;99554.63;;;6.65;73.46
74895;BME280;63447;49.446;8.666;2023-04-15T06:45:12;99575.06;;;6.85;72.25
74895;BME280;63447;49.446;8.666;2023-04-15T06:47:37;99542.53;;;6.66;72.23
74895;BME280;63447;49.446;8.666;2023-04-15T06:50:06;99551.03;;;6.82;73.99
74895;BME280;63447;49.446;8.666;2023-04-15T06:52:31;99575.28;;;7.09;72.87
74895;BME280;63447;49.446;8.666;2023-04-15T06:54:56;99567.06;;;7.09;73.58
74895;BME280;63447;49.446;8.666;2023-04-15T06:57:23;99543.09;;;6.98;72.64
74895;BME280;63447;49.446;8.666;2023-04-15T06:59:51;99568.41;;;7.33;71.51
74895;BME280;63447;49.446;8.666;2023-04-15T07:02:18;99574.44;;;7.56;71.74
74895;BME280;63447;49.446;8.666;2023-04-15T07:04:43;99560.19;;;7.62;70.79
74895;BME280;63447;49.446;8.666;2023-04-15T07:07:09;99543.09;;;7.57;69.63
74895;BME280;63447;49.446;8.666;2023-04-15T07:09:37;99554.63;;;7.79;71.43
74895;BME280;63447;49.446;8.666;2023-04-15T07:12:02;99562.72;;;7.97;69.30
74895;BME280;63447;49.446;8.666;2023-04-15T07:14:30;99568.06;;;8.14;70.56
74895;BME280;63447;49.446;8.666;2023-04-15T07:16:56;99521.47;;;8.05;69.23
74895;BME280;63447;49.446;8.666;2023-04-15T07:19:21;99564.81;;;8.41;69.30
74895;BME280;63447;49.446;8.666;2023-04-15T07:21:48;99548.13;;;8.46;68.95
74895;BME280;63447;49.446;8.666;2023-04-15T07:24:13;99539.44;;;8.57;68.46
74895;BME280;63447;49.446;8.666;2023-04-15T07:26:43;99562.00;;;8.83;68.10
74895;BME280;63447;49.446;8.666;2023-04-15T07:29:08;99550.28;;;8.86;67.81
74895;BME280;63447;49.446;8.666;2023-04-15T07:31:34;99563.19;;;9.06;67.91
74895;BME280;63447;49.446;8.666;2023-04-15T07:34:05;99560.78;;;9.05;67.94
74895;BME280;63447;49.446;8.666;2023-04-15T07:36:33;99555.75;;;9.31;67.59
74895;BME280;63447;49.446;8.666;2023-04-15T07:39:01;99554.50;;;9.53;69.08
74895;BME280;63447;49.446;8.666;2023-04-15T07:41:28;99552.19;;;9.43;65.80
74895;BME280;63447;49.446;8.666;2023-04-15T07:43:54;99574.53;;;9.66;65.54
74895;BME280;63447;49.446;8.666;2023-04-15T07:46:22;99568.88;;;9.99;67.07
74895;BME280;63447;49.446;8.666;2023-04-15T07:48:49;99571.38;;;10.28;65.63
74895;BME280;63447;49.446;8.666;2023-04-15T07:51:15;99572.78;;;10.50;63.16
74895;BME280;63447;49.446;8.666;2023-04-15T07:53:40;99582.69;;;10.67;63.21
74895;BME280;63447;49.446;8.666;2023-04-15T07:56:08;99576.38;;;10.66;61.35
74895;BME280;63447;49.446;8.666;2023-04-15T07:58:33;99576.53;;;10.85;62.30
74895;BME280;63447;49.446;8.666;2023-04-15T08:00:59;99571.88;;;10.74;62.28
74895;BME280;63447;49.446;8.666;2023-04-15T08:03:27;99574.28;;;10.75;63.11
74895;BME280;63447;49.446;8.666;2023-04-15T08:05:54;99585.13;;;11.12;62.75
74895;BME280;63447;49.446;8.666;2023-04-15T08:08:20;99577.19;;;11.26;60.92
74895;BME280;63447;49.446;8.666;2023-04-15T08:10:45;99577.72;;;11.47;61.94
74895;BME280;63447;49.446;8.666;2023-04-15T08:13:11;99579.19;;;11.41;62.09
74895;BME280;63447;49.446;8.666;2023-04-15T08:15:36;99584.16;;;11.51;62.47
74895;BME280;63447;49.446;8.666;2023-04-15T08:18:02;99573.19;;;11.39;60.75
74895;BME280;63447;49.446;8.666;2023-04-15T08:20:27;99587.97;;;11.15;61.10
74895;BME280;63447;49.446;8.666;2023-04-15T08:22:53;99577.03;;;11.35;60.64
74895;BME280;63447;49.446;8.666;2023-04-15T08:25:20;99577.03;;;11.35;59.68
74895;BME280;63447;49.446;8.666;2023-04-15T08:27:46;99591.19;;;11.49;59.93
74895;BME280;63447;49.446;8.666;2023-04-15T08:30:12;99576.41;;;11.41;59.82
74895;BME280;63447;49.446;8.666;2023-04-15T08:32:37;99575.41;;;11.49;59.67
74895;BME280;63447;49.446;8.666;2023-04-15T08:35:06;99575.59;;;11.56;60.91
74895;BME280;63447;49.446;8.666;2023-04-15T08:37:32;99583.53;;;11.58;61.28
74895;BME280;63447;49.446;8.666;2023-04-15T08:39:59;99579.69;;;11.78;60.11
74895;BME280;63447;49.446;8.666;2023-04-15T08:42:48;99583.34;;;11.82;60.92
74895;BME280;63447;49.446;8.666;2023-04-15T08:45:19;99588.59;;;11.87;60.99
74895;BME280;63447;49.446;8.666;2023-04-15T08:47:48;99587.97;;;11.94;61.14
74895;BME280;63447;49.446;8.666;2023-04-15T08:50:19;99579.34;;;12.15;60.70
74895;BME280;63447;49.446;8.666;2023-04-15T08:52:47;99598.44;;;12.39;60.00
74895;BME280;63447;49.446;8.666;2023-04-15T08:55:13;99578.25;;;12.58;58.38
74895;BME280;63447;49.446;8.666;2023-04-15T08:57:39;99575.56;;;12.62;58.47
74895;BME280;63447;49.446;8.666;2023-04-15T09:00:10;99580.72;;;12.82;56.85
74895;BME280;63447;49.446;8.666;2023-04-15T09:02:36;99584.88;;;12.92;56.60
74895;BME280;63447;49.446;8.666;2023-04-15T09:05:05;99582.06;;;13.11;56.89
74895;BME280;63447;49.446;8.666;2023-04-15T09:07:33;99582.47;;;13.33;57.29
74895;BME280;63447;49.446;8.666;2023-04-15T09:10:03;99582.28;;;13.45;56.06
74895;BME280;63447;49.446;8.666;2023-04-15T09:12:34;99588.78;;;13.56;55.90
74895;BME280;63447;49.446;8.666;2023-04-15T09:15:04;99572.00;;;13.45;55.38
74895;BME280;63447;49.446;8.666;2023-04-15T09:17:32;99584.78;;;13.76;56.77
74895;BME280;63447;49.446;8.666;2023-04-15T09:22:33;99590.31;;;13.76;54.69
74895;BME280;63447;49.446;8.666;2023-04-15T09:25:02;99593.31;;;13.90;55.55
74895;BME280;63447;49.446;8.666;2023-04-15T09:27:28;99587.63;;;13.83;55.24
74895;BME280;63447;49.446;8.666;2023-04-15T09:29:53;99591.28;;;13.87;55.26
74895;BME280;63447;49.446;8.666;2023-04-15T09:32:21;99584.50;;;13.85;54.44
74895;BME280;63447;49.446;8.666;2023-04-15T09:34:56;99598.66;;;14.03;54.07
74895;BME280;63447;49.446;8.666;2023-04-15T09:37:34;99581.81;;;14.18;53.87
74895;BME280;63447;49.446;8.666;2023-04-15T09:40:02;99594.66;;;14.30;53.82
74895;BME280;63447;49.446;8.666;2023-04-15T09:42:28;99588.28;;;14.56;52.63
74895;BME280;63447;49.446;8.666;2023-04-15T09:44:53;99599.81;;;14.91;51.79
74895;BME280;63447;49.446;8.666;2023-04-15T09:47:33;99600.59;;;14.92;51.17
74895;BME280;63447;49.446;8.666;2023-04-15T09:49:59;99595.06;;;14.92;52.16
74895;BME280;63447;49.446;8.666;2023-04-15T09:52:27;99599.66;;;15.14;49.62
74895;BME280;63447;49.446;8.666;2023-04-15T09:54:53;99610.22;;;15.39;49.04
74895;BME280;63447;49.446;8.666;2023-04-15T09:57:20;99606.56;;;15.72;49.96
74895;BME280;63447;49.446;8.666;2023-04-15T09:59:46;99618.69;;;15.97;48.42
74895;BME280;63447;49.446;8.666;2023-04-15T10:02:17;99612.78;;;16.06;48.93
74895;BME280;63447;49.446;8.666;2023-04-15T10:04:43;99605.66;;;16.08;47.67
74895;BME280;63447;49.446;8.666;2023-04-15T10:07:10;99616.31;;;15.99;47.36
74895;BME280;63447;49.446;8.666;2023-04-15T10:09:38;99618.69;;;15.53;47.54
74895;BME280;63447;49.446;8.666;2023-04-15T10:12:04;99610.09;;;15.65;48.96
74895;BME280;63447;49.446;8.666;2023-04-15T10:14:37;99621.16;;;15.61;48.71
74895;BME280;63447;49.446;8.666;2023-04-15T10:17:10;99622.91;;;15.77;48.97
74895;BME280;63447;49.446;8.666;2023-04-15T10:22:07;99622.03;;;16.20;47.95
74895;BME280;63447;49.446;8.666;2023-04-15T10:24:33;99632.28;;;16.13;46.93
74895;BME280;63447;49.446;8.666;2023-04-15T10:27:04;99632.22;;;15.99;46.31
74895;BME280;63447;49.446;8.666;2023-04-15T10:29:30;99622.47;;;16.26;46.81
74895;BME280;63447;49.446;8.666;2023-04-15T10:32:00;99620.19;;;16.46;45.64
74895;BME280;63447;49.446;8.666;2023-04-15T10:34:28;99631.44;;;16.63;44.38
74895;BME280;63447;49.446;8.666;2023-04-15T10:37:00;99632.88;;;16.43;44.44
74895;BME280;63447;49.446;8.666;2023-04-15T10:42:15;99639.06;;;16.15;45.13
74895;BME280;63447;49.446;8.666;2023-04-15T10:44:55;99635.09;;;16.09;45.29
74895;BME280;63447;49.446;8.666;2023-04-15T10:47:21;99647.09;;;16.24;44.84
74895;BME280;63447;49.446;8.666;2023-04-15T10:49:48;99647.13;;;16.27;44.21
74895;BME280;63447;49.446;8.666;2023-04-15T10:52:16;99646.56;;;16.04;44.24
74895;BME280;63447;49.446;8.666;2023-04-15T10:54:44;99645.69;;;15.93;45.11
74895;BME280;63447;49.446;8.666;2023-04-15T10:57:21;99651.16;;;15.82;44.08
74895;BME280;63447;49.446;8.666;2023-04-15T11:00:00;99655.59;;;15.90;43.68
74895;BME280;63447;49.446;8.666;2023-04-15T11:02:45;99657.72;;;16.08;44.66
74895;BME280;63447;49.446;8.666;2023-04-15T11:05:13;99662.88;;;16.06;43.01
74895;BME280;63447;49.446;8.666;2023-04-15T11:07:56;99656.50;;;16.05;42.09
74895;BME280;63447;49.446;8.666;2023-04-15T11:13:36;99670.06;;;16.14;41.35
74895;BME280;63447;49.446;8.666;2023-04-15T11:18:53;99661.94;;;15.91;41.81
74895;BME280;63447;49.446;8.666;2023-04-15T11:21:23;99649.72;;;15.55;42.78
74895;BME280;63447;49.446;8.666;2023-04-15T11:23:52;99668.53;;;15.69;41.93
74895;BME280;63447;49.446;8.666;2023-04-15T11:26:18;99669.84;;;15.45;41.36
74895;BME280;63447;49.446;8.666;2023-04-15T11:28:44;99676.13;;;15.38;42.64
74895;BME280;63447;49.446;8.666;2023-04-15T11:31:13;99673.25;;;15.27;42.23
74895;BME280;63447;49.446;8.666;2023-04-15T11:33:52;99688.91;;;14.76;43.00
74895;BME280;63447;49.446;8.666;2023-04-15T11:36:17;99681.81;;;14.25;43.12
74895;BME280;63447;49.446;8.666;2023-04-15T11:38:47;99694.94;;;14.29;42.22
74895;BME280;63447;49.446;8.666;2023-04-15T11:41:19;99690.59;;;13.82;43.98
74895;BME280;63447;49.446;8.666;2023-04-15T11:43:47;99679.16;;;13.83;43.66
74895;BME280;63447;49.446;8.666;2023-04-15T11:46:15;99690.22;;;13.83;42.22
74895;BME280;63447;49.446;8.666;2023-04-15T11:48:44;99695.97;;;13.94;43.13
74895;BME280;63447;49.446;8.666;2023-04-15T11:51:11;99694.81;;;13.72;42.71
74895;BME280;63447;49.446;8.666;2023-04-15T11:53:39;99700.84;;;14.01;43.29
74895;BME280;63447;49.446;8.666;2023-04-15T11:56:06;99703.66;;;14.04;42.25
74895;BME280;63447;49.446;8.666;2023-04-15T11:58:35;99703.50;;;14.43;42.41
74895;BME280;63447;49.446;8.666;2023-04-15T12:01:05;99705.91;;;14.44;41.00
74895;BME280;63447;49.446;8.666;2023-04-15T12:03:36;99704.88;;;14.86;41.75
74895;BME280;63447;49.446;8.666;2023-04-15T12:11:13;99707.78;;;15.26;38.61
74895;BME280;63447;49.446;8.666;2023-04-15T12:13:53;99714.97;;;14.98;40.67
74895;BME280;63447;49.446;8.666;2023-04-15T12:16:20;99722.22;;;15.06;40.08
74895;BME280;63447;49.446;8.666;2023-04-15T12:18:47;99728.91;;;14.71;40.50
74895;BME280;63447;49.446;8.666;2023-04-15T12:21:17;99722.00;;;14.62;40.90
74895;BME280;63447;49.446;8.666;2023-04-15T12:26:17;99725.28;;;14.67;41.21
74895;BME280;63447;49.446;8.666;2023-04-15T12:28:53;99723.94;;;14.87;41.30
74895;BME280;63447;49.446;8.666;2023-04-15T12:31:18;99729.50;;;14.87;41.08
74895;BME280;63447;49.446;8.666;2023-04-15T12:33:54;99736.75;;;14.66;41.77
74895;BME280;63447;49.446;8.666;2023-04-15T12:36:22;99726.34;;;14.59;41.76
74895;BME280;63447;49.446;8.666;2023-04-15T12:38:48;99731.81;;;14.52;42.30
74895;BME280;63447;49.446;8.666;2023-04-15T12:41:15;99715.41;;;14.43;42.34
74895;BME280;63447;49.446;8.666;2023-04-15T12:43:43;99740.81;;;14.45;42.98
74895;BME280;63447;49.446;8.666;2023-04-15T12:46:10;99729.53;;;14.12;43.23
74895;BME280;63447;49.446;8.666;2023-04-15T12:48:35;99745.44;;;14.15;43.06
74895;BME280;63447;49.446;8.666;2023-04-15T12:51:03;99749.28;;;14.07;42.93
74895;BME280;63447;49.446;8.666;2023-04-15T12:53:28;99746.63;;;13.91;41.19
74895;BME280;63447;49.446;8.666;2023-04-15T12:55:53;99750.44;;;13.83;42.16
74895;BME280;63447;49.446;8.666;2023-04-15T12:58:21;99745.75;;;13.87;42.02
74895;BME280;63447;49.446;8.666;2023-04-15T13:00:50;99747.38;;;14.11;41.77
74895;BME280;63447;49.446;8.666;2023-04-15T13:03:17;99751.13;;;14.22;42.28
74895;BME280;63447;49.446;8.666;2023-04-15T13:05:42;99752.09;;;14.33;42.73
74895;BME280;63447;49.446;8.666;2023-04-15T13:08:10;99755.00;;;14.17;41.20
74895;BME280;63447;49.446;8.666;2023-04-15T13:10:38;99757.63;;;14.33;41.74
74895;BME280;63447;49.446;8.666;2023-04-15T13:13:04;99763.56;;;14.32;42.06
74895;BME280;63447;49.446;8.666;2023-04-15T13:15:30;99748.28;;;14.18;43.09
74895;BME280;63447;49.446;8.666;2023-04-15T13:17:58;99759.00;;;14.20;41.91
74895;BME280;63447;49.446;8.666;2023-04-15T13:20:23;99764.63;;;14.23;41.04
74895;BME280;63447;49.446;8.666;2023-04-15T13:22:52;99747.63;;;14.25;41.73
74895;BME280;63447;49.446;8.666;2023-04-15T13:25:18;99757.91;;;14.24;41.11
74895;BME280;63447;49.446;8.666;2023-04-15T13:27:43;99765.44;;;14.01;40.07
74895;BME280;63447;49.446;8.666;2023-04-15T13:30:11;99763.56;;;14.09;40.74